Aérodrome :
LOGIN :

S'inscrire | Disclaimer

   EN    FR    IT 

 










Légende :    VFR   VFR Marginal   IFR   IFR Intensif   IFR Très Intensif
Visi : 
Plafond : 
>= 8 km
>= 3000ft
5 à 8 km
1000 à 3000 ft
1500m à 5 km
500 à 1000 ft
800 à 1500m
200 à 500 ft
< 800m
< 200 ft
Symboles :   Orages  Brouillard  Fortes neiges  Fortes précipitations  Vent > 20 kt
SIGMETs :   Divers  Orages  Givrage  Turbulence  Onde Orograph.  Cendres Volcan.







- Altitude de l'aérodrome : 1325 ft
- Code IATA : EBU
- Voir les cartes d'approche


LFMH - St-Etienne Boutheon

DERNIER METAR :
  • 270300Z AUTO 10003KT CAVOK 17/12 Q1016 NOSIG

METARs EXPIRÉS :
  • 270230Z AUTO VRB01KT CAVOK 17/12 Q1017 NOSIG
  • 270200Z AUTO VRB03KT 9999 ///TCU 18/12 Q1016
  • 270130Z AUTO 02003KT 9999 ///TCU 18/13 Q1016
  • 270100Z AUTO 10004KT 9999 ///TCU 17/13 Q1016
  • 270030Z AUTO VRB02KT 9999 ///CB 18/14 Q1017

TAF TAF LFMH
Valide du 27 à 03h jusqu'au 28 à 03h UTC


270200Z 2703/2803 VRB03KT CAVOK
BECMG 2709/2711 14007KT
TEMPO 2714/2803 4000 SHRA SCT050TCU
PROB40
TEMPO 2714/2717 VRB15G40KT 2500 TSRA SCT050CB
BECMG 2720/2722 VRB05KT BKN015
ATIS : +33 4 77 36 17 51
Pas de NOTAMs connus pour ce terrain.
1 SIGMET publié pour la FIR Marseille (LFMM) :
 
Orages noyés dans la masse
LFMM SIGMET 1 VALID 270130/270400 LFPW
LFMM MARSEILLE FIR/UIR EMBD TS OBS WI N4530 E00430 - N4615 E00430 - N4545 E00615 - N4530 E00430 TOP FL330 MOV N 20KT NC=



MET'MAP, la Météo Aéronautique d'un coup d'oeil ! - Copyright ORBIFLY Décembre 2007 - Disclaimer

ORBIFLY MET'MAP TEAM :

Programmation & Développement : Alexandra Zaïnal
Conception & Développement : Baudouin d'Aumeries
Co-Programmation & Développement : Marc-Olivier Méhu
Soutien technique & logistique : Manuel Goepfert

Contact : metmap@orbifly.com




SOURCES & CREDITS :

   NOAA